<?xml version="1.0" encoding="UTF-8" standalone="no" ?>
<gpx xmlns="http://www.topografix.com/GPX/1/1" xmlns:xsi="http://www.w3.org/2001/XMLSchema-instance" xsi:schemaLocation="http://www.topografix.com/GPX/1/1 http://www.topografix.com/GPX/1/1/gpx.xsd" version="1.1" creator="VisuGPX - https://www.visugpx.com">
  <metadata>
    <name>Edirne-Zagreb</name>
  </metadata>
  <trk>
    <name><![CDATA[4_Sarajevo à Zagreb_487km]]></name>
    <extensions>
      <line xmlns="http://www.topografix.com/GPX/gpx_style/0/2">
        <color>008888</color>
        <width>4</width>
      </line>
    </extensions>
    <trkseg>
      <trkpt lat="43.85174" lon="18.38855">
        <ele>525.505111</ele>
        <time>2022-05-05T15:56:48.957Z</time>
      </trkpt>
      <trkpt lat="43.85174" lon="18.3857">
        <ele>523.775239</ele>
        <time>2022-05-05T15:57:39.874Z</time>
      </trkpt>
      <trkpt lat="43.85056" lon="18.37805">
        <ele>520.372778</ele>
        <time>2022-05-05T16:00:05.854Z</time>
      </trkpt>
      <trkpt lat="43.84905" lon="18.36713">
        <ele>515.43098</ele>
        <time>2022-05-05T16:03:40.333Z</time>
      </trkpt>
      <trkpt lat="43.84763" lon="18.35784">
        <ele>509.84226</ele>
        <time>2022-05-05T16:06:28.168Z</time>
      </trkpt>
      <trkpt lat="43.84532" lon="18.34058">
        <ele>505.704332</ele>
        <time>2022-05-05T16:12:18.911Z</time>
      </trkpt>
      <trkpt lat="43.84437" lon="18.33387">
        <ele>501.228579</ele>
        <time>2022-05-05T16:14:29.916Z</time>
      </trkpt>
      <trkpt lat="43.8443" lon="18.32804">
        <ele>499.562868</ele>
        <time>2022-05-05T16:16:30.997Z</time>
      </trkpt>
      <trkpt lat="43.85065" lon="18.32675">
        <ele>498.714816</ele>
        <time>2022-05-05T16:19:19.583Z</time>
      </trkpt>
      <trkpt lat="43.85536" lon="18.32538">
        <ele>503.516874</ele>
        <time>2022-05-05T16:22:02.570Z</time>
      </trkpt>
      <trkpt lat="43.85954" lon="18.32019">
        <ele>503.977535</ele>
        <time>2022-05-05T16:24:43.328Z</time>
      </trkpt>
      <trkpt lat="43.86297" lon="18.31661">
        <ele>501.598088</ele>
        <time>2022-05-05T16:26:30.633Z</time>
      </trkpt>
      <trkpt lat="43.86969" lon="18.31175">
        <ele>496.009811</ele>
        <time>2022-05-05T16:29:34.878Z</time>
      </trkpt>
      <trkpt lat="43.87615" lon="18.3148">
        <ele>499.813361</ele>
        <time>2022-05-05T16:33:27.732Z</time>
      </trkpt>
      <trkpt lat="43.88131" lon="18.31752">
        <ele>497.812654</ele>
        <time>2022-05-05T16:35:58.834Z</time>
      </trkpt>
      <trkpt lat="43.88804" lon="18.32659">
        <ele>485.990365</ele>
        <time>2022-05-05T16:40:08.255Z</time>
      </trkpt>
      <trkpt lat="43.89381" lon="18.31993">
        <ele>490.005813</ele>
        <time>2022-05-05T16:44:44.561Z</time>
      </trkpt>
      <trkpt lat="43.89978" lon="18.32379">
        <ele>494.143536</ele>
        <time>2022-05-05T16:48:38.472Z</time>
      </trkpt>
      <trkpt lat="43.90421" lon="18.32208">
        <ele>519.67161</ele>
        <time>2022-05-05T16:53:34.518Z</time>
      </trkpt>
      <trkpt lat="43.90973" lon="18.31872">
        <ele>516.596059</ele>
        <time>2022-05-05T16:56:52.491Z</time>
      </trkpt>
      <trkpt lat="43.91317" lon="18.31778">
        <ele>508.347328</ele>
        <time>2022-05-05T16:58:33.987Z</time>
      </trkpt>
      <trkpt lat="43.91783" lon="18.31332">
        <ele>475.611105</ele>
        <time>2022-05-05T17:00:25.361Z</time>
      </trkpt>
      <trkpt lat="43.92037" lon="18.3158">
        <ele>474.158571</ele>
        <time>2022-05-05T17:02:21.693Z</time>
      </trkpt>
      <trkpt lat="43.92168" lon="18.31417">
        <ele>481.146972</ele>
        <time>2022-05-05T17:04:52.484Z</time>
      </trkpt>
      <trkpt lat="43.92594" lon="18.30755">
        <ele>480.117695</ele>
        <time>2022-05-05T17:08:13.754Z</time>
      </trkpt>
      <trkpt lat="43.93136" lon="18.30322">
        <ele>477.422617</ele>
        <time>2022-05-05T17:11:43.781Z</time>
      </trkpt>
      <trkpt lat="43.93906" lon="18.29968">
        <ele>471.250564</ele>
        <time>2022-05-05T17:15:42.576Z</time>
      </trkpt>
      <trkpt lat="43.94057" lon="18.28314">
        <ele>457.840956</ele>
        <time>2022-05-05T17:21:04.413Z</time>
      </trkpt>
      <trkpt lat="43.94146" lon="18.2732">
        <ele>457.343838</ele>
        <time>2022-05-05T17:24:34.809Z</time>
      </trkpt>
      <trkpt lat="43.94644" lon="18.26715">
        <ele>462.262993</ele>
        <time>2022-05-05T17:28:20.467Z</time>
      </trkpt>
      <trkpt lat="43.95077" lon="18.27039">
        <ele>460.937843</ele>
        <time>2022-05-05T17:31:59.271Z</time>
      </trkpt>
      <trkpt lat="43.95444" lon="18.26468">
        <ele>455.024058</ele>
        <time>2022-05-05T17:34:31.898Z</time>
      </trkpt>
      <trkpt lat="43.96117" lon="18.26479">
        <ele>446.585831</ele>
        <time>2022-05-05T17:37:04.532Z</time>
      </trkpt>
      <trkpt lat="43.96613" lon="18.26004">
        <ele>441.675602</ele>
        <time>2022-05-05T17:39:33.244Z</time>
      </trkpt>
      <trkpt lat="43.9723" lon="18.24999">
        <ele>441.585539</ele>
        <time>2022-05-05T17:43:52.052Z</time>
      </trkpt>
      <trkpt lat="43.97509" lon="18.24303">
        <ele>440.045259</ele>
        <time>2022-05-05T17:46:26.842Z</time>
      </trkpt>
      <trkpt lat="43.98903" lon="18.23151">
        <ele>431.904785</ele>
        <time>2022-05-05T17:53:30.190Z</time>
      </trkpt>
      <trkpt lat="43.99806" lon="18.21522">
        <ele>426.451294</ele>
        <time>2022-05-05T17:59:43.467Z</time>
      </trkpt>
      <trkpt lat="43.99297" lon="18.20138">
        <ele>421.09211</ele>
        <time>2022-05-05T18:04:43.944Z</time>
      </trkpt>
      <trkpt lat="43.99199" lon="18.18823">
        <ele>419.777875</ele>
        <time>2022-05-05T18:09:21.328Z</time>
      </trkpt>
      <trkpt lat="44.00205" lon="18.17894">
        <ele>423.272831</ele>
        <time>2022-05-05T18:15:15.800Z</time>
      </trkpt>
      <trkpt lat="44.0055" lon="18.17365">
        <ele>418.283112</ele>
        <time>2022-05-05T18:17:36.359Z</time>
      </trkpt>
      <trkpt lat="44.01095" lon="18.16482">
        <ele>412.532082</ele>
        <time>2022-05-05T18:21:22.777Z</time>
      </trkpt>
      <trkpt lat="44.01945" lon="18.15996">
        <ele>413.43914</ele>
        <time>2022-05-05T18:26:05.416Z</time>
      </trkpt>
      <trkpt lat="44.02448" lon="18.15272">
        <ele>406.520787</ele>
        <time>2022-05-05T18:29:26.645Z</time>
      </trkpt>
      <trkpt lat="44.03274" lon="18.14696">
        <ele>410.170122</ele>
        <time>2022-05-05T18:34:21.562Z</time>
      </trkpt>
      <trkpt lat="44.03972" lon="18.13874">
        <ele>421.93358</ele>
        <time>2022-05-05T18:39:42.070Z</time>
      </trkpt>
      <trkpt lat="44.04485" lon="18.13176">
        <ele>431.185396</ele>
        <time>2022-05-05T18:43:50.965Z</time>
      </trkpt>
      <trkpt lat="44.04869" lon="18.12039">
        <ele>409.082892</ele>
        <time>2022-05-05T18:47:18.089Z</time>
      </trkpt>
      <trkpt lat="44.04969" lon="18.11217">
        <ele>399.506544</ele>
        <time>2022-05-05T18:50:05.664Z</time>
      </trkpt>
      <trkpt lat="44.06059" lon="18.10345">
        <ele>396.594249</ele>
        <time>2022-05-05T18:56:06.254Z</time>
      </trkpt>
      <trkpt lat="44.07917" lon="18.11">
        <ele>390.46803</ele>
        <time>2022-05-05T19:04:20.676Z</time>
      </trkpt>
      <trkpt lat="44.09542" lon="18.10888">
        <ele>388.338027</ele>
        <time>2022-05-05T19:12:05.338Z</time>
      </trkpt>
      <trkpt lat="44.10026" lon="18.11052">
        <ele>393.997361</ele>
        <time>2022-05-05T19:15:19.950Z</time>
      </trkpt>
      <trkpt lat="44.10729" lon="18.1183">
        <ele>406.640064</ele>
        <time>2022-05-05T19:20:35.446Z</time>
      </trkpt>
      <trkpt lat="44.11406" lon="18.11758">
        <ele>382.02826</ele>
        <time>2022-05-05T19:23:22.429Z</time>
      </trkpt>
      <trkpt lat="44.11899" lon="18.11459">
        <ele>378.415609</ele>
        <time>2022-05-05T19:25:49.511Z</time>
      </trkpt>
      <trkpt lat="44.12249" lon="18.11237">
        <ele>377.818956</ele>
        <time>2022-05-05T19:28:03.921Z</time>
      </trkpt>
      <trkpt lat="44.12453" lon="18.11501">
        <ele>383.070671</ele>
        <time>2022-05-05T19:30:10.019Z</time>
      </trkpt>
      <trkpt lat="44.12396" lon="18.11257">
        <ele>378.841521</ele>
        <time>2022-05-05T19:32:25.631Z</time>
      </trkpt>
      <trkpt lat="44.12758" lon="18.09182">
        <ele>373.174489</ele>
        <time>2022-05-05T19:39:21.608Z</time>
      </trkpt>
      <trkpt lat="44.13536" lon="18.08225">
        <ele>376.333948</ele>
        <time>2022-05-05T19:44:39.123Z</time>
      </trkpt>
      <trkpt lat="44.13206" lon="18.06816">
        <ele>370.377259</ele>
        <time>2022-05-05T19:49:23.948Z</time>
      </trkpt>
      <trkpt lat="44.13511" lon="18.05111">
        <ele>376.677784</ele>
        <time>2022-05-05T19:55:51.406Z</time>
      </trkpt>
      <trkpt lat="44.13672" lon="18.0314">
        <ele>369.939092</ele>
        <time>2022-05-05T20:02:02.690Z</time>
      </trkpt>
      <trkpt lat="44.13321" lon="18.01607">
        <ele>361.357375</ele>
        <time>2022-05-05T20:07:01.052Z</time>
      </trkpt>
      <trkpt lat="44.13283" lon="17.99976">
        <ele>359.349527</ele>
        <time>2022-05-05T20:12:21.115Z</time>
      </trkpt>
      <trkpt lat="44.13265" lon="17.98727">
        <ele>357.710687</ele>
        <time>2022-05-05T20:16:33.996Z</time>
      </trkpt>
      <trkpt lat="44.1287" lon="17.9758">
        <ele>360.446941</ele>
        <time>2022-05-05T20:20:52.005Z</time>
      </trkpt>
      <trkpt lat="44.12934" lon="17.96017">
        <ele>358.562388</ele>
        <time>2022-05-05T20:25:48.337Z</time>
      </trkpt>
      <trkpt lat="44.12979" lon="17.94487">
        <ele>364.391709</ele>
        <time>2022-05-05T20:30:39.448Z</time>
      </trkpt>
      <trkpt lat="44.13686" lon="17.93432">
        <ele>359.695169</ele>
        <time>2022-05-05T20:35:20.940Z</time>
      </trkpt>
      <trkpt lat="44.14497" lon="17.93727">
        <ele>341.507462</ele>
        <time>2022-05-05T20:39:14.624Z</time>
      </trkpt>
      <trkpt lat="44.14893" lon="17.9575">
        <ele>333.940258</ele>
        <time>2022-05-05T20:45:44.138Z</time>
      </trkpt>
      <trkpt lat="44.15539" lon="17.96275">
        <ele>336.027137</ele>
        <time>2022-05-05T20:49:36.121Z</time>
      </trkpt>
      <trkpt lat="44.16637" lon="17.9674">
        <ele>330.058176</ele>
        <time>2022-05-05T20:54:46.521Z</time>
      </trkpt>
      <trkpt lat="44.17838" lon="17.96704">
        <ele>344.130958</ele>
        <time>2022-05-05T21:02:00.239Z</time>
      </trkpt>
      <trkpt lat="44.18082" lon="17.96202">
        <ele>340.35853</ele>
        <time>2022-05-05T21:03:55.414Z</time>
      </trkpt>
      <trkpt lat="44.18486" lon="17.94871">
        <ele>339.927577</ele>
        <time>2022-05-05T21:09:11.496Z</time>
      </trkpt>
      <trkpt lat="44.1875" lon="17.93984">
        <ele>342.703398</ele>
        <time>2022-05-05T21:13:20.867Z</time>
      </trkpt>
      <trkpt lat="44.19002" lon="17.93411">
        <ele>323.782559</ele>
        <time>2022-05-05T21:15:37.980Z</time>
      </trkpt>
      <trkpt lat="44.19259" lon="17.92889">
        <ele>318.973656</ele>
        <time>2022-05-05T21:18:08.328Z</time>
      </trkpt>
      <trkpt lat="44.19472" lon="17.92113">
        <ele>314.993723</ele>
        <time>2022-05-05T21:20:46.267Z</time>
      </trkpt>
      <trkpt lat="44.19861" lon="17.91779">
        <ele>313.364906</ele>
        <time>2022-05-05T21:23:13.159Z</time>
      </trkpt>
      <trkpt lat="44.19979" lon="17.91263">
        <ele>315.986485</ele>
        <time>2022-05-05T21:25:11.871Z</time>
      </trkpt>
      <trkpt lat="44.20307" lon="17.90782">
        <ele>318.293085</ele>
        <time>2022-05-05T21:27:41.807Z</time>
      </trkpt>
      <trkpt lat="44.20276" lon="17.90502">
        <ele>322.420665</ele>
        <time>2022-05-05T21:29:14.500Z</time>
      </trkpt>
      <trkpt lat="44.20365" lon="17.9009">
        <ele>331.982375</ele>
        <time>2022-05-05T21:32:02.397Z</time>
      </trkpt>
      <trkpt lat="44.21132" lon="17.89303">
        <ele>359.324767</ele>
        <time>2022-05-05T21:38:36.678Z</time>
      </trkpt>
      <trkpt lat="44.2212" lon="17.89323">
        <ele>344.773381</ele>
        <time>2022-05-05T21:43:08.811Z</time>
      </trkpt>
      <trkpt lat="44.22891" lon="17.88962">
        <ele>330.705925</ele>
        <time>2022-05-05T21:46:18.259Z</time>
      </trkpt>
      <trkpt lat="44.23683" lon="17.88998">
        <ele>313.022863</ele>
        <time>2022-05-05T21:49:08.609Z</time>
      </trkpt>
      <trkpt lat="44.24188" lon="17.89394">
        <ele>316.505424</ele>
        <time>2022-05-05T21:52:13.042Z</time>
      </trkpt>
      <trkpt lat="44.24939" lon="17.89674">
        <ele>301.451306</ele>
        <time>2022-05-05T21:55:24.075Z</time>
      </trkpt>
      <trkpt lat="44.25466" lon="17.8853">
        <ele>318.360431</ele>
        <time>2022-05-05T22:02:17.603Z</time>
      </trkpt>
      <trkpt lat="44.26068" lon="17.87756">
        <ele>295.201416</ele>
        <time>2022-05-05T22:05:20.003Z</time>
      </trkpt>
      <trkpt lat="44.27515" lon="17.88073">
        <ele>297.277149</ele>
        <time>2022-05-05T22:12:09.222Z</time>
      </trkpt>
      <trkpt lat="44.29329" lon="17.89678">
        <ele>300.241914</ele>
        <time>2022-05-05T22:22:29.436Z</time>
      </trkpt>
      <trkpt lat="44.29196" lon="17.9044">
        <ele>306.79848</ele>
        <time>2022-05-05T22:26:18.453Z</time>
      </trkpt>
      <trkpt lat="44.29251" lon="17.90993">
        <ele>313.431525</ele>
        <time>2022-05-05T22:30:15.525Z</time>
      </trkpt>
      <trkpt lat="44.28515" lon="17.90945">
        <ele>304.186912</ele>
        <time>2022-05-05T22:34:16.173Z</time>
      </trkpt>
      <trkpt lat="44.28528" lon="17.91802">
        <ele>285.14296</ele>
        <time>2022-05-05T22:38:01.230Z</time>
      </trkpt>
      <trkpt lat="44.29794" lon="17.91579">
        <ele>293.67079</ele>
        <time>2022-05-05T22:45:00.538Z</time>
      </trkpt>
      <trkpt lat="44.3063" lon="17.91044">
        <ele>278.846036</ele>
        <time>2022-05-05T22:49:14.339Z</time>
      </trkpt>
      <trkpt lat="44.30728" lon="17.9049">
        <ele>303.876249</ele>
        <time>2022-05-05T22:53:43.764Z</time>
      </trkpt>
      <trkpt lat="44.32004" lon="17.90425">
        <ele>270.174946</ele>
        <time>2022-05-05T22:59:03.001Z</time>
      </trkpt>
      <trkpt lat="44.33241" lon="17.91559">
        <ele>268.644243</ele>
        <time>2022-05-05T23:05:35.599Z</time>
      </trkpt>
      <trkpt lat="44.34463" lon="17.92151">
        <ele>268.646088</ele>
        <time>2022-05-05T23:11:31.920Z</time>
      </trkpt>
      <trkpt lat="44.35221" lon="17.92469">
        <ele>267.383274</ele>
        <time>2022-05-05T23:15:09.999Z</time>
      </trkpt>
      <trkpt lat="44.3558" lon="17.93423">
        <ele>271.553744</ele>
        <time>2022-05-05T23:19:19.822Z</time>
      </trkpt>
      <trkpt lat="44.35695" lon="17.95054">
        <ele>261.502159</ele>
        <time>2022-05-05T23:24:28.279Z</time>
      </trkpt>
      <trkpt lat="44.35137" lon="17.96694">
        <ele>266.06349</ele>
        <time>2022-05-05T23:30:57.232Z</time>
      </trkpt>
      <trkpt lat="44.34995" lon="17.98588">
        <ele>254.28082</ele>
        <time>2022-05-05T23:36:54.457Z</time>
      </trkpt>
      <trkpt lat="44.3588" lon="17.99821">
        <ele>252.768344</ele>
        <time>2022-05-05T23:42:37.887Z</time>
      </trkpt>
      <trkpt lat="44.3712" lon="18.00238">
        <ele>250.972058</ele>
        <time>2022-05-05T23:48:32.016Z</time>
      </trkpt>
      <trkpt lat="44.38322" lon="17.98698">
        <ele>250.782518</ele>
        <time>2022-05-05T23:56:07.640Z</time>
      </trkpt>
      <trkpt lat="44.39207" lon="17.98505">
        <ele>242.186191</ele>
        <time>2022-05-05T23:59:45.612Z</time>
      </trkpt>
      <trkpt lat="44.39911" lon="17.99785">
        <ele>240.648238</ele>
        <time>2022-05-06T00:05:03.354Z</time>
      </trkpt>
      <trkpt lat="44.40511" lon="18.00557">
        <ele>240.48849</ele>
        <time>2022-05-06T00:09:13.580Z</time>
      </trkpt>
      <trkpt lat="44.41752" lon="17.99659">
        <ele>235.082481</ele>
        <time>2022-05-06T00:15:39.297Z</time>
      </trkpt>
      <trkpt lat="44.42273" lon="18.00551">
        <ele>234.00419</ele>
        <time>2022-05-06T00:19:28.826Z</time>
      </trkpt>
      <trkpt lat="44.42493" lon="18.02379">
        <ele>232.922452</ele>
        <time>2022-05-06T00:25:28.069Z</time>
      </trkpt>
      <trkpt lat="44.43163" lon="18.03589">
        <ele>241.3238</ele>
        <time>2022-05-06T00:31:14.338Z</time>
      </trkpt>
      <trkpt lat="44.43814" lon="18.04124">
        <ele>256.04494</ele>
        <time>2022-05-06T00:35:52.934Z</time>
      </trkpt>
      <trkpt lat="44.4437" lon="18.04934">
        <ele>264.741864</ele>
        <time>2022-05-06T00:40:17.052Z</time>
      </trkpt>
      <trkpt lat="44.44751" lon="18.05704">
        <ele>283.265826</ele>
        <time>2022-05-06T00:45:06.323Z</time>
      </trkpt>
      <trkpt lat="44.45743" lon="18.06146">
        <ele>307.117653</ele>
        <time>2022-05-06T00:51:10.118Z</time>
      </trkpt>
      <trkpt lat="44.46536" lon="18.06602">
        <ele>264.899021</ele>
        <time>2022-05-06T00:54:01.233Z</time>
      </trkpt>
      <trkpt lat="44.47571" lon="18.0686">
        <ele>226.600873</ele>
        <time>2022-05-06T00:57:33.000Z</time>
      </trkpt>
      <trkpt lat="44.48413" lon="18.07111">
        <ele>207.573576</ele>
        <time>2022-05-06T01:00:46.393Z</time>
      </trkpt>
      <trkpt lat="44.48709" lon="18.07863">
        <ele>200.944319</ele>
        <time>2022-05-06T01:03:10.544Z</time>
      </trkpt>
      <trkpt lat="44.49242" lon="18.08451">
        <ele>202.547394</ele>
        <time>2022-05-06T01:06:52.853Z</time>
      </trkpt>
      <trkpt lat="44.50057" lon="18.08022">
        <ele>203.605541</ele>
        <time>2022-05-06T01:11:00.667Z</time>
      </trkpt>
      <trkpt lat="44.50985" lon="18.08176">
        <ele>192.098205</ele>
        <time>2022-05-06T01:14:56.472Z</time>
      </trkpt>
      <trkpt lat="44.5185" lon="18.08493">
        <ele>179.798425</ele>
        <time>2022-05-06T01:18:35.458Z</time>
      </trkpt>
      <trkpt lat="44.52497" lon="18.09483">
        <ele>176.853941</ele>
        <time>2022-05-06T01:22:53.610Z</time>
      </trkpt>
      <trkpt lat="44.52879" lon="18.09187">
        <ele>174.199295</ele>
        <time>2022-05-06T01:25:12.521Z</time>
      </trkpt>
      <trkpt lat="44.53223" lon="18.08868">
        <ele>179.542573</ele>
        <time>2022-05-06T01:27:44.794Z</time>
      </trkpt>
      <trkpt lat="44.54306" lon="18.09614">
        <ele>172.063756</ele>
        <time>2022-05-06T01:33:25.361Z</time>
      </trkpt>
      <trkpt lat="44.54736" lon="18.1046">
        <ele>186.145933</ele>
        <time>2022-05-06T01:38:48.865Z</time>
      </trkpt>
      <trkpt lat="44.55475" lon="18.10364">
        <ele>185.031046</ele>
        <time>2022-05-06T01:42:23.601Z</time>
      </trkpt>
      <trkpt lat="44.56152" lon="18.10519">
        <ele>173.244059</ele>
        <time>2022-05-06T01:45:22.836Z</time>
      </trkpt>
      <trkpt lat="44.56831" lon="18.10697">
        <ele>170.795206</ele>
        <time>2022-05-06T01:48:38.496Z</time>
      </trkpt>
      <trkpt lat="44.57594" lon="18.10036">
        <ele>172.236557</ele>
        <time>2022-05-06T01:53:14.151Z</time>
      </trkpt>
      <trkpt lat="44.58001" lon="18.09873">
        <ele>187.323236</ele>
        <time>2022-05-06T01:57:14.121Z</time>
      </trkpt>
      <trkpt lat="44.59072" lon="18.09711">
        <ele>183.479861</ele>
        <time>2022-05-06T02:01:55.948Z</time>
      </trkpt>
      <trkpt lat="44.59779" lon="18.09959">
        <ele>182.288325</ele>
        <time>2022-05-06T02:06:03.928Z</time>
      </trkpt>
      <trkpt lat="44.60633" lon="18.09763">
        <ele>170.898842</ele>
        <time>2022-05-06T02:09:52.164Z</time>
      </trkpt>
      <trkpt lat="44.61487" lon="18.10556">
        <ele>163.998439</ele>
        <time>2022-05-06T02:14:29.981Z</time>
      </trkpt>
      <trkpt lat="44.62658" lon="18.1015">
        <ele>163.799076</ele>
        <time>2022-05-06T02:20:07.295Z</time>
      </trkpt>
      <trkpt lat="44.63169" lon="18.09341">
        <ele>158.459315</ele>
        <time>2022-05-06T02:23:21.909Z</time>
      </trkpt>
      <trkpt lat="44.63965" lon="18.09204">
        <ele>164.654786</ele>
        <time>2022-05-06T02:28:58.738Z</time>
      </trkpt>
      <trkpt lat="44.64634" lon="18.09118">
        <ele>159.833972</ele>
        <time>2022-05-06T02:32:26.128Z</time>
      </trkpt>
      <trkpt lat="44.64921" lon="18.08308">
        <ele>161.364732</ele>
        <time>2022-05-06T02:35:38.522Z</time>
      </trkpt>
      <trkpt lat="44.65871" lon="18.08157">
        <ele>155.972704</ele>
        <time>2022-05-06T02:39:53.898Z</time>
      </trkpt>
      <trkpt lat="44.66429" lon="18.07281">
        <ele>152.845851</ele>
        <time>2022-05-06T02:43:42.691Z</time>
      </trkpt>
      <trkpt lat="44.67569" lon="18.07186">
        <ele>151.041828</ele>
        <time>2022-05-06T02:49:37.245Z</time>
      </trkpt>
      <trkpt lat="44.69011" lon="18.07163">
        <ele>147.143828</ele>
        <time>2022-05-06T02:55:50.446Z</time>
      </trkpt>
      <trkpt lat="44.69782" lon="18.07301">
        <ele>146.535843</ele>
        <time>2022-05-06T02:59:16.280Z</time>
      </trkpt>
      <trkpt lat="44.70672" lon="18.08245">
        <ele>146.305018</ele>
        <time>2022-05-06T03:04:51.856Z</time>
      </trkpt>
      <trkpt lat="44.71645" lon="18.08">
        <ele>145.220249</ele>
        <time>2022-05-06T03:11:14.258Z</time>
      </trkpt>
      <trkpt lat="44.72474" lon="18.07383">
        <ele>150.575547</ele>
        <time>2022-05-06T03:16:15.958Z</time>
      </trkpt>
      <trkpt lat="44.72821" lon="18.0728">
        <ele>193.033375</ele>
        <time>2022-05-06T03:22:01.093Z</time>
      </trkpt>
      <trkpt lat="44.73337" lon="18.06928">
        <ele>239.282247</ele>
        <time>2022-05-06T03:28:23.428Z</time>
      </trkpt>
      <trkpt lat="44.73734" lon="18.0634">
        <ele>278.238574</ele>
        <time>2022-05-06T03:34:31.638Z</time>
      </trkpt>
      <trkpt lat="44.73798" lon="18.05005">
        <ele>301.991891</ele>
        <time>2022-05-06T03:41:00.210Z</time>
      </trkpt>
      <trkpt lat="44.74474" lon="18.04631">
        <ele>292.578141</ele>
        <time>2022-05-06T03:46:04.435Z</time>
      </trkpt>
      <trkpt lat="44.7507" lon="18.04798">
        <ele>213.880358</ele>
        <time>2022-05-06T03:47:50.689Z</time>
      </trkpt>
      <trkpt lat="44.75591" lon="18.04906">
        <ele>151.006575</ele>
        <time>2022-05-06T03:49:33.088Z</time>
      </trkpt>
      <trkpt lat="44.75892" lon="18.0428">
        <ele>138.866344</ele>
        <time>2022-05-06T03:51:32.992Z</time>
      </trkpt>
      <trkpt lat="44.76091" lon="18.03857">
        <ele>138.547888</ele>
        <time>2022-05-06T03:53:39.461Z</time>
      </trkpt>
      <trkpt lat="44.75888" lon="18.03053">
        <ele>141.165785</ele>
        <time>2022-05-06T03:56:41.447Z</time>
      </trkpt>
      <trkpt lat="44.7557" lon="18.02243">
        <ele>144.724644</ele>
        <time>2022-05-06T04:00:05.527Z</time>
      </trkpt>
      <trkpt lat="44.75641" lon="18.00515">
        <ele>149.453791</ele>
        <time>2022-05-06T04:06:11.905Z</time>
      </trkpt>
      <trkpt lat="44.75465" lon="17.98896">
        <ele>156.018783</ele>
        <time>2022-05-06T04:12:01.344Z</time>
      </trkpt>
      <trkpt lat="44.76124" lon="17.96749">
        <ele>165.116472</ele>
        <time>2022-05-06T04:20:14.153Z</time>
      </trkpt>
      <trkpt lat="44.76265" lon="17.95763">
        <ele>168.276889</ele>
        <time>2022-05-06T04:23:49.909Z</time>
      </trkpt>
      <trkpt lat="44.76536" lon="17.95212">
        <ele>175.567968</ele>
        <time>2022-05-06T04:26:44.145Z</time>
      </trkpt>
      <trkpt lat="44.76867" lon="17.94824">
        <ele>183.511174</ele>
        <time>2022-05-06T04:29:59.924Z</time>
      </trkpt>
      <trkpt lat="44.77098" lon="17.93966">
        <ele>180.208359</ele>
        <time>2022-05-06T04:33:06.685Z</time>
      </trkpt>
      <trkpt lat="44.76943" lon="17.92342">
        <ele>216.692528</ele>
        <time>2022-05-06T04:41:47.618Z</time>
      </trkpt>
      <trkpt lat="44.77309" lon="17.91331">
        <ele>257.075469</ele>
        <time>2022-05-06T04:48:53.880Z</time>
      </trkpt>
      <trkpt lat="44.77008" lon="17.90814">
        <ele>271.213316</ele>
        <time>2022-05-06T04:52:26.339Z</time>
      </trkpt>
      <trkpt lat="44.76566" lon="17.8976">
        <ele>273.476369</ele>
        <time>2022-05-06T04:56:52.565Z</time>
      </trkpt>
      <trkpt lat="44.76632" lon="17.89057">
        <ele>281.3032</ele>
        <time>2022-05-06T05:00:41.478Z</time>
      </trkpt>
      <trkpt lat="44.76299" lon="17.88785">
        <ele>251.314123</ele>
        <time>2022-05-06T05:02:09.052Z</time>
      </trkpt>
      <trkpt lat="44.75854" lon="17.88364">
        <ele>249.179585</ele>
        <time>2022-05-06T05:05:31.877Z</time>
      </trkpt>
      <trkpt lat="44.75272" lon="17.87863">
        <ele>208.291709</ele>
        <time>2022-05-06T05:07:48.763Z</time>
      </trkpt>
      <trkpt lat="44.75243" lon="17.86933">
        <ele>203.938753</ele>
        <time>2022-05-06T05:11:25.079Z</time>
      </trkpt>
      <trkpt lat="44.75044" lon="17.86056">
        <ele>193.696871</ele>
        <time>2022-05-06T05:14:46.269Z</time>
      </trkpt>
      <trkpt lat="44.75424" lon="17.85054">
        <ele>188.689536</ele>
        <time>2022-05-06T05:18:45.580Z</time>
      </trkpt>
      <trkpt lat="44.75411" lon="17.83563">
        <ele>178.693523</ele>
        <time>2022-05-06T05:23:11.084Z</time>
      </trkpt>
      <trkpt lat="44.762" lon="17.831">
        <ele>202.083686</ele>
        <time>2022-05-06T05:30:42.629Z</time>
      </trkpt>
      <trkpt lat="44.76567" lon="17.8209">
        <ele>214.306973</ele>
        <time>2022-05-06T05:36:14.376Z</time>
      </trkpt>
      <trkpt lat="44.76428" lon="17.80823">
        <ele>201.350378</ele>
        <time>2022-05-06T05:40:33.051Z</time>
      </trkpt>
      <trkpt lat="44.76346" lon="17.80153">
        <ele>191.679294</ele>
        <time>2022-05-06T05:42:31.432Z</time>
      </trkpt>
      <trkpt lat="44.76495" lon="17.78919">
        <ele>171.117127</ele>
        <time>2022-05-06T05:46:33.925Z</time>
      </trkpt>
      <trkpt lat="44.76921" lon="17.77879">
        <ele>172.537144</ele>
        <time>2022-05-06T05:50:38.893Z</time>
      </trkpt>
      <trkpt lat="44.77136" lon="17.76361">
        <ele>159.596522</ele>
        <time>2022-05-06T05:54:50.884Z</time>
      </trkpt>
      <trkpt lat="44.77547" lon="17.75379">
        <ele>155.396564</ele>
        <time>2022-05-06T05:58:29.133Z</time>
      </trkpt>
      <trkpt lat="44.77308" lon="17.74432">
        <ele>156.377146</ele>
        <time>2022-05-06T06:02:46.850Z</time>
      </trkpt>
      <trkpt lat="44.76964" lon="17.74143">
        <ele>156.933208</ele>
        <time>2022-05-06T06:05:20.935Z</time>
      </trkpt>
      <trkpt lat="44.76676" lon="17.73132">
        <ele>168.057663</ele>
        <time>2022-05-06T06:10:55.925Z</time>
      </trkpt>
      <trkpt lat="44.76141" lon="17.7191">
        <ele>167.96187</ele>
        <time>2022-05-06T06:19:48.086Z</time>
      </trkpt>
      <trkpt lat="44.75777" lon="17.71167">
        <ele>196.595494</ele>
        <time>2022-05-06T06:27:32.548Z</time>
      </trkpt>
      <trkpt lat="44.76129" lon="17.70485">
        <ele>177.249441</ele>
        <time>2022-05-06T06:31:54.245Z</time>
      </trkpt>
      <trkpt lat="44.75318" lon="17.70029">
        <ele>184.247095</ele>
        <time>2022-05-06T06:39:33.853Z</time>
      </trkpt>
      <trkpt lat="44.75045" lon="17.68465">
        <ele>177.974257</ele>
        <time>2022-05-06T06:48:07.977Z</time>
      </trkpt>
      <trkpt lat="44.74986" lon="17.67456">
        <ele>173.228674</ele>
        <time>2022-05-06T06:51:36.546Z</time>
      </trkpt>
      <trkpt lat="44.74367" lon="17.66583">
        <ele>176.223127</ele>
        <time>2022-05-06T06:58:30.551Z</time>
      </trkpt>
      <trkpt lat="44.74639" lon="17.66067">
        <ele>180.93797</ele>
        <time>2022-05-06T07:03:13.607Z</time>
      </trkpt>
      <trkpt lat="44.74459" lon="17.65334">
        <ele>201.357511</ele>
        <time>2022-05-06T07:10:31.450Z</time>
      </trkpt>
      <trkpt lat="44.74351" lon="17.64238">
        <ele>194.569963</ele>
        <time>2022-05-06T07:16:52.942Z</time>
      </trkpt>
      <trkpt lat="44.73993" lon="17.62492">
        <ele>210.771965</ele>
        <time>2022-05-06T07:29:33.822Z</time>
      </trkpt>
      <trkpt lat="44.74581" lon="17.61784">
        <ele>195.356899</ele>
        <time>2022-05-06T07:34:43.213Z</time>
      </trkpt>
      <trkpt lat="44.75074" lon="17.59958">
        <ele>197.502249</ele>
        <time>2022-05-06T07:41:32.388Z</time>
      </trkpt>
      <trkpt lat="44.75474" lon="17.58064">
        <ele>202.743769</ele>
        <time>2022-05-06T07:50:20.877Z</time>
      </trkpt>
      <trkpt lat="44.75453" lon="17.57269">
        <ele>206.079746</ele>
        <time>2022-05-06T07:53:25.302Z</time>
      </trkpt>
      <trkpt lat="44.75067" lon="17.56844">
        <ele>213.542781</ele>
        <time>2022-05-06T07:56:57.710Z</time>
      </trkpt>
      <trkpt lat="44.75415" lon="17.55818">
        <ele>257.839354</ele>
        <time>2022-05-06T08:04:28.337Z</time>
      </trkpt>
      <trkpt lat="44.75713" lon="17.54623">
        <ele>231.819017</ele>
        <time>2022-05-06T08:07:48.247Z</time>
      </trkpt>
      <trkpt lat="44.76002" lon="17.53488">
        <ele>220.233876</ele>
        <time>2022-05-06T08:11:35.574Z</time>
      </trkpt>
      <trkpt lat="44.76233" lon="17.52248">
        <ele>222.13773</ele>
        <time>2022-05-06T08:16:21.733Z</time>
      </trkpt>
      <trkpt lat="44.76235" lon="17.50354">
        <ele>312.712867</ele>
        <time>2022-05-06T08:29:45.469Z</time>
      </trkpt>
      <trkpt lat="44.7606" lon="17.48201">
        <ele>334.55592</ele>
        <time>2022-05-06T08:38:42.170Z</time>
      </trkpt>
      <trkpt lat="44.7534" lon="17.46608">
        <ele>274.610068</ele>
        <time>2022-05-06T08:43:10.398Z</time>
      </trkpt>
      <trkpt lat="44.74511" lon="17.45607">
        <ele>259.218236</ele>
        <time>2022-05-06T08:47:28.242Z</time>
      </trkpt>
      <trkpt lat="44.74133" lon="17.44713">
        <ele>248.516768</ele>
        <time>2022-05-06T08:50:34.542Z</time>
      </trkpt>
      <trkpt lat="44.74077" lon="17.43805">
        <ele>246.976955</ele>
        <time>2022-05-06T08:54:06.845Z</time>
      </trkpt>
      <trkpt lat="44.74594" lon="17.4215">
        <ele>233.126849</ele>
        <time>2022-05-06T08:59:31.557Z</time>
      </trkpt>
      <trkpt lat="44.75226" lon="17.40944">
        <ele>240.923224</ele>
        <time>2022-05-06T09:05:01.761Z</time>
      </trkpt>
      <trkpt lat="44.7541" lon="17.39755">
        <ele>225.664524</ele>
        <time>2022-05-06T09:08:42.809Z</time>
      </trkpt>
      <trkpt lat="44.75774" lon="17.3854">
        <ele>218.685157</ele>
        <time>2022-05-06T09:13:02.540Z</time>
      </trkpt>
      <trkpt lat="44.74504" lon="17.37923">
        <ele>213.683208</ele>
        <time>2022-05-06T09:18:56.899Z</time>
      </trkpt>
      <trkpt lat="44.73961" lon="17.36785">
        <ele>210.832158</ele>
        <time>2022-05-06T09:23:27.448Z</time>
      </trkpt>
      <trkpt lat="44.74409" lon="17.35291">
        <ele>205.110182</ele>
        <time>2022-05-06T09:28:38.829Z</time>
      </trkpt>
      <trkpt lat="44.74678" lon="17.34119">
        <ele>203.297534</ele>
        <time>2022-05-06T09:32:51.959Z</time>
      </trkpt>
      <trkpt lat="44.74538" lon="17.33213">
        <ele>198.755705</ele>
        <time>2022-05-06T09:35:59.848Z</time>
      </trkpt>
      <trkpt lat="44.73761" lon="17.32003">
        <ele>194.163703</ele>
        <time>2022-05-06T09:41:16.444Z</time>
      </trkpt>
      <trkpt lat="44.7308" lon="17.31005">
        <ele>192.196467</ele>
        <time>2022-05-06T09:46:02.511Z</time>
      </trkpt>
      <trkpt lat="44.72474" lon="17.30225">
        <ele>191.897217</ele>
        <time>2022-05-06T09:50:09.931Z</time>
      </trkpt>
      <trkpt lat="44.72688" lon="17.29487">
        <ele>209.088532</ele>
        <time>2022-05-06T09:55:10.447Z</time>
      </trkpt>
      <trkpt lat="44.73215" lon="17.29366">
        <ele>192.756794</ele>
        <time>2022-05-06T09:57:19.445Z</time>
      </trkpt>
      <trkpt lat="44.73836" lon="17.28455">
        <ele>177.460451</ele>
        <time>2022-05-06T10:00:45.349Z</time>
      </trkpt>
      <trkpt lat="44.73824" lon="17.27976">
        <ele>182.666282</ele>
        <time>2022-05-06T10:03:15.558Z</time>
      </trkpt>
      <trkpt lat="44.74624" lon="17.27181">
        <ele>174.146818</ele>
        <time>2022-05-06T10:07:36.017Z</time>
      </trkpt>
      <trkpt lat="44.74695" lon="17.26372">
        <ele>178.165789</ele>
        <time>2022-05-06T10:10:56.619Z</time>
      </trkpt>
      <trkpt lat="44.74857" lon="17.25122">
        <ele>172.886714</ele>
        <time>2022-05-06T10:14:48.571Z</time>
      </trkpt>
      <trkpt lat="44.75992" lon="17.24575">
        <ele>161.866688</ele>
        <time>2022-05-06T10:19:48.257Z</time>
      </trkpt>
      <trkpt lat="44.76685" lon="17.23821">
        <ele>165.102673</ele>
        <time>2022-05-06T10:23:59.218Z</time>
      </trkpt>
      <trkpt lat="44.76687" lon="17.22994">
        <ele>166.969619</ele>
        <time>2022-05-06T10:26:47.696Z</time>
      </trkpt>
      <trkpt lat="44.76969" lon="17.22029">
        <ele>159.003925</ele>
        <time>2022-05-06T10:29:57.341Z</time>
      </trkpt>
      <trkpt lat="44.77306" lon="17.21706">
        <ele>151.922514</ele>
        <time>2022-05-06T10:31:43.220Z</time>
      </trkpt>
      <trkpt lat="44.77226" lon="17.20985">
        <ele>154.941604</ele>
        <time>2022-05-06T10:34:16.378Z</time>
      </trkpt>
      <trkpt lat="44.77118" lon="17.20526">
        <ele>157.346246</ele>
        <time>2022-05-06T10:36:01.560Z</time>
      </trkpt>
      <trkpt lat="44.7708" lon="17.19897">
        <ele>161.198726</ele>
        <time>2022-05-06T10:38:26.106Z</time>
      </trkpt>
      <trkpt lat="44.76917" lon="17.19219">
        <ele>162.536593</ele>
        <time>2022-05-06T10:42:16.813Z</time>
      </trkpt>
      <trkpt lat="44.76844" lon="17.18784">
        <ele>163.75408</ele>
        <time>2022-05-06T10:44:21.428Z</time>
      </trkpt>
      <trkpt lat="44.77107" lon="17.18252">
        <ele>166.081245</ele>
        <time>2022-05-06T10:46:42.636Z</time>
      </trkpt>
      <trkpt lat="44.77277" lon="17.17893">
        <ele>167.227861</ele>
        <time>2022-05-06T10:48:19.400Z</time>
      </trkpt>
      <trkpt lat="44.7736" lon="17.17693">
        <ele>168.804333</ele>
        <time>2022-05-06T10:49:12.051Z</time>
      </trkpt>
      <trkpt lat="44.77593" lon="17.1714">
        <ele>174.419226</ele>
        <time>2022-05-06T10:51:43.381Z</time>
      </trkpt>
      <trkpt lat="44.78147" lon="17.16536">
        <ele>184.402386</ele>
        <time>2022-05-06T10:55:39.677Z</time>
      </trkpt>
      <trkpt lat="44.78631" lon="17.15997">
        <ele>195.831793</ele>
        <time>2022-05-06T10:59:18.948Z</time>
      </trkpt>
      <trkpt lat="44.79257" lon="17.15287">
        <ele>215.76514</ele>
        <time>2022-05-06T11:04:45.839Z</time>
      </trkpt>
      <trkpt lat="44.79548" lon="17.14684">
        <ele>218.200889</ele>
        <time>2022-05-06T11:07:21.419Z</time>
      </trkpt>
      <trkpt lat="44.7969" lon="17.13864">
        <ele>226.694573</ele>
        <time>2022-05-06T11:10:45.162Z</time>
      </trkpt>
      <trkpt lat="44.7983" lon="17.13366">
        <ele>238.077204</ele>
        <time>2022-05-06T11:13:33.272Z</time>
      </trkpt>
      <trkpt lat="44.80176" lon="17.12272">
        <ele>254.641591</ele>
        <time>2022-05-06T11:18:42.415Z</time>
      </trkpt>
      <trkpt lat="44.80943" lon="17.11688">
        <ele>276.189387</ele>
        <time>2022-05-06T11:24:31.058Z</time>
      </trkpt>
      <trkpt lat="44.81281" lon="17.10644">
        <ele>285.143484</ele>
        <time>2022-05-06T11:28:48.842Z</time>
      </trkpt>
      <trkpt lat="44.81834" lon="17.09578">
        <ele>307.390564</ele>
        <time>2022-05-06T11:34:58.170Z</time>
      </trkpt>
      <trkpt lat="44.82345" lon="17.08136">
        <ele>336.268696</ele>
        <time>2022-05-06T11:42:25.870Z</time>
      </trkpt>
      <trkpt lat="44.82386" lon="17.07166">
        <ele>315.294206</ele>
        <time>2022-05-06T11:45:28.676Z</time>
      </trkpt>
      <trkpt lat="44.8259" lon="17.06636">
        <ele>284.201432</ele>
        <time>2022-05-06T11:47:03.808Z</time>
      </trkpt>
      <trkpt lat="44.81856" lon="17.06176">
        <ele>259.568884</ele>
        <time>2022-05-06T11:49:50.730Z</time>
      </trkpt>
      <trkpt lat="44.81471" lon="17.05044">
        <ele>229.292658</ele>
        <time>2022-05-06T11:53:00.060Z</time>
      </trkpt>
      <trkpt lat="44.81846" lon="17.03853">
        <ele>215.429487</ele>
        <time>2022-05-06T11:56:35.986Z</time>
      </trkpt>
      <trkpt lat="44.82325" lon="17.03305">
        <ele>209.41883</ele>
        <time>2022-05-06T11:59:06.403Z</time>
      </trkpt>
      <trkpt lat="44.82591" lon="17.02183">
        <ele>227.263059</ele>
        <time>2022-05-06T12:04:36.843Z</time>
      </trkpt>
      <trkpt lat="44.82609" lon="17.00905">
        <ele>217.637739</ele>
        <time>2022-05-06T12:08:56.310Z</time>
      </trkpt>
      <trkpt lat="44.82249" lon="17.00129">
        <ele>202.817392</ele>
        <time>2022-05-06T12:11:50.390Z</time>
      </trkpt>
      <trkpt lat="44.81905" lon="16.99644">
        <ele>199.107085</ele>
        <time>2022-05-06T12:14:16.005Z</time>
      </trkpt>
      <trkpt lat="44.82223" lon="16.98785">
        <ele>197.396339</ele>
        <time>2022-05-06T12:17:33.405Z</time>
      </trkpt>
      <trkpt lat="44.8274" lon="16.97845">
        <ele>196.706764</ele>
        <time>2022-05-06T12:21:57.631Z</time>
      </trkpt>
      <trkpt lat="44.83814" lon="16.96728">
        <ele>190.003715</ele>
        <time>2022-05-06T12:27:42.215Z</time>
      </trkpt>
      <trkpt lat="44.84338" lon="16.95919">
        <ele>181.181831</ele>
        <time>2022-05-06T12:30:49.101Z</time>
      </trkpt>
      <trkpt lat="44.84911" lon="16.95151">
        <ele>200.465146</ele>
        <time>2022-05-06T12:36:10.748Z</time>
      </trkpt>
      <trkpt lat="44.84904" lon="16.94314">
        <ele>206.080005</ele>
        <time>2022-05-06T12:39:57.159Z</time>
      </trkpt>
      <trkpt lat="44.84645" lon="16.93647">
        <ele>177.986193</ele>
        <time>2022-05-06T12:41:55.608Z</time>
      </trkpt>
      <trkpt lat="44.84512" lon="16.92716">
        <ele>166.198618</ele>
        <time>2022-05-06T12:44:56.026Z</time>
      </trkpt>
      <trkpt lat="44.84884" lon="16.91986">
        <ele>172.866539</ele>
        <time>2022-05-06T12:49:46.942Z</time>
      </trkpt>
      <trkpt lat="44.8508" lon="16.91264">
        <ele>185.019542</ele>
        <time>2022-05-06T12:53:26.637Z</time>
      </trkpt>
      <trkpt lat="44.85531" lon="16.90269">
        <ele>190.014727</ele>
        <time>2022-05-06T12:58:28.981Z</time>
      </trkpt>
      <trkpt lat="44.86528" lon="16.90023">
        <ele>165.03741</ele>
        <time>2022-05-06T13:02:31.380Z</time>
      </trkpt>
      <trkpt lat="44.86885" lon="16.90714">
        <ele>156.132268</ele>
        <time>2022-05-06T13:05:03.133Z</time>
      </trkpt>
      <trkpt lat="44.87834" lon="16.91022">
        <ele>159.064138</ele>
        <time>2022-05-06T13:10:00.546Z</time>
      </trkpt>
      <trkpt lat="44.88329" lon="16.89948">
        <ele>156.968892</ele>
        <time>2022-05-06T13:14:08.244Z</time>
      </trkpt>
      <trkpt lat="44.88884" lon="16.89372">
        <ele>162.032484</ele>
        <time>2022-05-06T13:17:57.879Z</time>
      </trkpt>
      <trkpt lat="44.89227" lon="16.88556">
        <ele>157.437685</ele>
        <time>2022-05-06T13:20:54.249Z</time>
      </trkpt>
      <trkpt lat="44.90676" lon="16.85874">
        <ele>156.370012</ele>
        <time>2022-05-06T13:31:58.825Z</time>
      </trkpt>
      <trkpt lat="44.91599" lon="16.83932">
        <ele>148.043188</ele>
        <time>2022-05-06T13:39:12.939Z</time>
      </trkpt>
      <trkpt lat="44.927" lon="16.81555">
        <ele>145.497055</ele>
        <time>2022-05-06T13:48:21.025Z</time>
      </trkpt>
      <trkpt lat="44.93596" lon="16.80223">
        <ele>146.437092</ele>
        <time>2022-05-06T13:54:56.797Z</time>
      </trkpt>
      <trkpt lat="44.93991" lon="16.7966">
        <ele>146.160088</ele>
        <time>2022-05-06T13:58:11.496Z</time>
      </trkpt>
      <trkpt lat="44.94217" lon="16.78969">
        <ele>143.494544</ele>
        <time>2022-05-06T14:00:55.946Z</time>
      </trkpt>
      <trkpt lat="44.94693" lon="16.78927">
        <ele>146.143854</ele>
        <time>2022-05-06T14:03:59.908Z</time>
      </trkpt>
      <trkpt lat="44.95252" lon="16.78396">
        <ele>146.917563</ele>
        <time>2022-05-06T14:07:17.963Z</time>
      </trkpt>
      <trkpt lat="44.95837" lon="16.77475">
        <ele>143.496397</ele>
        <time>2022-05-06T14:11:12.704Z</time>
      </trkpt>
      <trkpt lat="44.96428" lon="16.76515">
        <ele>145.473868</ele>
        <time>2022-05-06T14:15:27.745Z</time>
      </trkpt>
      <trkpt lat="44.96906" lon="16.75211">
        <ele>143.225957</ele>
        <time>2022-05-06T14:20:08.162Z</time>
      </trkpt>
      <trkpt lat="44.97272" lon="16.74865">
        <ele>143.391753</ele>
        <time>2022-05-06T14:22:15.273Z</time>
      </trkpt>
      <trkpt lat="44.97198" lon="16.73985">
        <ele>140.313051</ele>
        <time>2022-05-06T14:25:05.060Z</time>
      </trkpt>
      <trkpt lat="44.97448" lon="16.72733">
        <ele>138.383866</ele>
        <time>2022-05-06T14:29:23.743Z</time>
      </trkpt>
      <trkpt lat="44.97755" lon="16.72249">
        <ele>140.710105</ele>
        <time>2022-05-06T14:32:13.509Z</time>
      </trkpt>
      <trkpt lat="44.98031" lon="16.71727">
        <ele>140.769848</ele>
        <time>2022-05-06T14:34:18.301Z</time>
      </trkpt>
      <trkpt lat="44.98432" lon="16.71672">
        <ele>141.021713</ele>
        <time>2022-05-06T14:36:41.888Z</time>
      </trkpt>
      <trkpt lat="44.98908" lon="16.71984">
        <ele>145.458972</ele>
        <time>2022-05-06T14:39:44.029Z</time>
      </trkpt>
      <trkpt lat="44.99426" lon="16.72075">
        <ele>150.847485</ele>
        <time>2022-05-06T14:43:03.369Z</time>
      </trkpt>
      <trkpt lat="45.0016" lon="16.72656">
        <ele>162.160363</ele>
        <time>2022-05-06T14:48:07.100Z</time>
      </trkpt>
      <trkpt lat="45.00804" lon="16.73383">
        <ele>167.136151</ele>
        <time>2022-05-06T14:52:49.711Z</time>
      </trkpt>
      <trkpt lat="45.01748" lon="16.73069">
        <ele>200.571838</ele>
        <time>2022-05-06T14:59:47.426Z</time>
      </trkpt>
      <trkpt lat="45.02209" lon="16.72862">
        <ele>227.919006</ele>
        <time>2022-05-06T15:04:48.677Z</time>
      </trkpt>
      <trkpt lat="45.02858" lon="16.72795">
        <ele>257.615107</ele>
        <time>2022-05-06T15:10:17.081Z</time>
      </trkpt>
      <trkpt lat="45.03318" lon="16.72734">
        <ele>281.20009</ele>
        <time>2022-05-06T15:14:38.945Z</time>
      </trkpt>
      <trkpt lat="45.04025" lon="16.72309">
        <ele>279.939197</ele>
        <time>2022-05-06T15:18:32.831Z</time>
      </trkpt>
      <trkpt lat="45.03944" lon="16.72806">
        <ele>262.886054</ele>
        <time>2022-05-06T15:19:53.244Z</time>
      </trkpt>
      <trkpt lat="45.04367" lon="16.7265">
        <ele>236.002492</ele>
        <time>2022-05-06T15:21:39.922Z</time>
      </trkpt>
      <trkpt lat="45.05004" lon="16.71794">
        <ele>214.932476</ele>
        <time>2022-05-06T15:24:56.699Z</time>
      </trkpt>
      <trkpt lat="45.0579" lon="16.71379">
        <ele>206.30603</ele>
        <time>2022-05-06T15:28:28.138Z</time>
      </trkpt>
      <trkpt lat="45.06745" lon="16.7037">
        <ele>190.842213</ele>
        <time>2022-05-06T15:33:03.320Z</time>
      </trkpt>
      <trkpt lat="45.07211" lon="16.70626">
        <ele>190.516892</ele>
        <time>2022-05-06T15:36:25.831Z</time>
      </trkpt>
      <trkpt lat="45.07915" lon="16.7126">
        <ele>229.500985</ele>
        <time>2022-05-06T15:43:43.398Z</time>
      </trkpt>
      <trkpt lat="45.0797" lon="16.72212">
        <ele>270.040954</ele>
        <time>2022-05-06T15:50:14.213Z</time>
      </trkpt>
      <trkpt lat="45.07856" lon="16.73317">
        <ele>278.020433</ele>
        <time>2022-05-06T15:54:49.303Z</time>
      </trkpt>
      <trkpt lat="45.08382" lon="16.73837">
        <ele>230.844661</ele>
        <time>2022-05-06T15:57:13.895Z</time>
      </trkpt>
      <trkpt lat="45.08599" lon="16.74301">
        <ele>187.580047</ele>
        <time>2022-05-06T15:58:52.994Z</time>
      </trkpt>
      <trkpt lat="45.08587" lon="16.7489">
        <ele>200.101064</ele>
        <time>2022-05-06T16:02:35.572Z</time>
      </trkpt>
      <trkpt lat="45.09239" lon="16.74985">
        <ele>184.083994</ele>
        <time>2022-05-06T16:05:10.673Z</time>
      </trkpt>
      <trkpt lat="45.0993" lon="16.74458">
        <ele>172.896845</ele>
        <time>2022-05-06T16:08:14.781Z</time>
      </trkpt>
      <trkpt lat="45.10495" lon="16.74024">
        <ele>168.211692</ele>
        <time>2022-05-06T16:11:03.548Z</time>
      </trkpt>
      <trkpt lat="45.11068" lon="16.74061">
        <ele>159.874223</ele>
        <time>2022-05-06T16:13:19.650Z</time>
      </trkpt>
      <trkpt lat="45.11831" lon="16.74263">
        <ele>163.363616</ele>
        <time>2022-05-06T16:17:16.850Z</time>
      </trkpt>
      <trkpt lat="45.1267" lon="16.74195">
        <ele>130.165408</ele>
        <time>2022-05-06T16:20:01.483Z</time>
      </trkpt>
      <trkpt lat="45.13394" lon="16.76149">
        <ele>121.452304</ele>
        <time>2022-05-06T16:27:27.097Z</time>
      </trkpt>
      <trkpt lat="45.13896" lon="16.77379">
        <ele>134.493418</ele>
        <time>2022-05-06T16:33:13.471Z</time>
      </trkpt>
      <trkpt lat="45.14377" lon="16.78007">
        <ele>167.843035</ele>
        <time>2022-05-06T16:39:52.588Z</time>
      </trkpt>
      <trkpt lat="45.15015" lon="16.78698">
        <ele>175.290206</ele>
        <time>2022-05-06T16:44:17.814Z</time>
      </trkpt>
      <trkpt lat="45.15171" lon="16.79486">
        <ele>185.085678</ele>
        <time>2022-05-06T16:47:58.427Z</time>
      </trkpt>
      <trkpt lat="45.15864" lon="16.79905">
        <ele>152.953792</ele>
        <time>2022-05-06T16:50:33.565Z</time>
      </trkpt>
      <trkpt lat="45.16112" lon="16.80365">
        <ele>137.860053</ele>
        <time>2022-05-06T16:52:16.149Z</time>
      </trkpt>
      <trkpt lat="45.16636" lon="16.8063">
        <ele>111.723968</ele>
        <time>2022-05-06T16:54:39.428Z</time>
      </trkpt>
      <trkpt lat="45.17215" lon="16.8092">
        <ele>109.142439</ele>
        <time>2022-05-06T16:57:35.880Z</time>
      </trkpt>
      <trkpt lat="45.18001" lon="16.81032">
        <ele>98.409139</ele>
        <time>2022-05-06T17:00:51.510Z</time>
      </trkpt>
      <trkpt lat="45.18426" lon="16.80868">
        <ele>98.386137</ele>
        <time>2022-05-06T17:03:28.345Z</time>
      </trkpt>
      <trkpt lat="45.1892" lon="16.79886">
        <ele>99.154364</ele>
        <time>2022-05-06T17:08:37.501Z</time>
      </trkpt>
      <trkpt lat="45.19032" lon="16.79438">
        <ele>97.77306</ele>
        <time>2022-05-06T17:10:00.026Z</time>
      </trkpt>
      <trkpt lat="45.20191" lon="16.75863">
        <ele>102.161433</ele>
        <time>2022-05-06T17:22:42.946Z</time>
      </trkpt>
      <trkpt lat="45.20711" lon="16.73934">
        <ele>104.59612</ele>
        <time>2022-05-06T17:29:32.071Z</time>
      </trkpt>
      <trkpt lat="45.20938" lon="16.71627">
        <ele>103.332883</ele>
        <time>2022-05-06T17:36:54.305Z</time>
      </trkpt>
      <trkpt lat="45.20391" lon="16.69335">
        <ele>102.710111</ele>
        <time>2022-05-06T17:44:31.004Z</time>
      </trkpt>
      <trkpt lat="45.20887" lon="16.67268">
        <ele>110.133251</ele>
        <time>2022-05-06T17:52:05.847Z</time>
      </trkpt>
      <trkpt lat="45.21274" lon="16.65352">
        <ele>109.100421</ele>
        <time>2022-05-06T17:58:28.519Z</time>
      </trkpt>
      <trkpt lat="45.21795" lon="16.63121">
        <ele>108.495267</ele>
        <time>2022-05-06T18:06:13.755Z</time>
      </trkpt>
      <trkpt lat="45.22527" lon="16.6196">
        <ele>103.648808</ele>
        <time>2022-05-06T18:11:07.284Z</time>
      </trkpt>
      <trkpt lat="45.22965" lon="16.57967">
        <ele>104.356238</ele>
        <time>2022-05-06T18:24:44.492Z</time>
      </trkpt>
      <trkpt lat="45.2238" lon="16.55388">
        <ele>110.273759</ele>
        <time>2022-05-06T18:33:49.797Z</time>
      </trkpt>
      <trkpt lat="45.2225" lon="16.54897">
        <ele>106.918521</ele>
        <time>2022-05-06T18:35:23.852Z</time>
      </trkpt>
      <trkpt lat="45.22764" lon="16.54141">
        <ele>111.508901</ele>
        <time>2022-05-06T18:39:20.066Z</time>
      </trkpt>
      <trkpt lat="45.23036" lon="16.53369">
        <ele>129.954721</ele>
        <time>2022-05-06T18:43:42.960Z</time>
      </trkpt>
      <trkpt lat="45.23259" lon="16.53049">
        <ele>153.374642</ele>
        <time>2022-05-06T18:47:11.954Z</time>
      </trkpt>
      <trkpt lat="45.23741" lon="16.52708">
        <ele>172.232005</ele>
        <time>2022-05-06T18:51:39.428Z</time>
      </trkpt>
      <trkpt lat="45.24822" lon="16.51799">
        <ele>154.353127</ele>
        <time>2022-05-06T18:56:29.235Z</time>
      </trkpt>
      <trkpt lat="45.26967" lon="16.47379">
        <ele>154.250853</ele>
        <time>2022-05-06T19:13:33.577Z</time>
      </trkpt>
      <trkpt lat="45.28963" lon="16.43736">
        <ele>173.200559</ele>
        <time>2022-05-06T19:29:46.561Z</time>
      </trkpt>
      <trkpt lat="45.29742" lon="16.4319">
        <ele>180.539074</ele>
        <time>2022-05-06T19:34:16.921Z</time>
      </trkpt>
      <trkpt lat="45.30306" lon="16.4203">
        <ele>191.570307</ele>
        <time>2022-05-06T19:39:47.900Z</time>
      </trkpt>
      <trkpt lat="45.31058" lon="16.41299">
        <ele>195.737582</ele>
        <time>2022-05-06T19:44:26.578Z</time>
      </trkpt>
      <trkpt lat="45.31958" lon="16.39977">
        <ele>212.761339</ele>
        <time>2022-05-06T19:52:02.993Z</time>
      </trkpt>
      <trkpt lat="45.33331" lon="16.38968">
        <ele>247.735659</ele>
        <time>2022-05-06T20:01:51.673Z</time>
      </trkpt>
      <trkpt lat="45.3396" lon="16.38215">
        <ele>239.991109</ele>
        <time>2022-05-06T20:06:33.539Z</time>
      </trkpt>
      <trkpt lat="45.34529" lon="16.37536">
        <ele>181.631969</ele>
        <time>2022-05-06T20:08:48.473Z</time>
      </trkpt>
      <trkpt lat="45.35296" lon="16.37185">
        <ele>180.84362</ele>
        <time>2022-05-06T20:14:06.394Z</time>
      </trkpt>
      <trkpt lat="45.3573" lon="16.36456">
        <ele>191.386805</ele>
        <time>2022-05-06T20:19:14.127Z</time>
      </trkpt>
      <trkpt lat="45.36505" lon="16.35145">
        <ele>158.195841</ele>
        <time>2022-05-06T20:24:15.781Z</time>
      </trkpt>
      <trkpt lat="45.36878" lon="16.33753">
        <ele>205.24603</ele>
        <time>2022-05-06T20:33:13.832Z</time>
      </trkpt>
      <trkpt lat="45.37232" lon="16.33108">
        <ele>185.768466</ele>
        <time>2022-05-06T20:35:32.556Z</time>
      </trkpt>
      <trkpt lat="45.3784" lon="16.31967">
        <ele>154.59756</ele>
        <time>2022-05-06T20:38:56.726Z</time>
      </trkpt>
      <trkpt lat="45.38354" lon="16.31358">
        <ele>154.726646</ele>
        <time>2022-05-06T20:42:04.325Z</time>
      </trkpt>
      <trkpt lat="45.39661" lon="16.3049">
        <ele>125.396955</ele>
        <time>2022-05-06T20:47:09.790Z</time>
      </trkpt>
      <trkpt lat="45.40699" lon="16.2994">
        <ele>116.368229</ele>
        <time>2022-05-06T20:51:37.430Z</time>
      </trkpt>
      <trkpt lat="45.41724" lon="16.29141">
        <ele>109.664524</ele>
        <time>2022-05-06T20:56:27.451Z</time>
      </trkpt>
      <trkpt lat="45.42181" lon="16.28735">
        <ele>108.568484</ele>
        <time>2022-05-06T20:58:47.625Z</time>
      </trkpt>
      <trkpt lat="45.4254" lon="16.28412">
        <ele>105.682489</ele>
        <time>2022-05-06T21:00:29.374Z</time>
      </trkpt>
      <trkpt lat="45.43155" lon="16.27875">
        <ele>104.282543</ele>
        <time>2022-05-06T21:03:41.569Z</time>
      </trkpt>
      <trkpt lat="45.43655" lon="16.27785">
        <ele>105.104053</ele>
        <time>2022-05-06T21:06:02.683Z</time>
      </trkpt>
      <trkpt lat="45.44086" lon="16.27954">
        <ele>110.6372</ele>
        <time>2022-05-06T21:08:41.364Z</time>
      </trkpt>
      <trkpt lat="45.4416" lon="16.29078">
        <ele>107.968386</ele>
        <time>2022-05-06T21:12:08.028Z</time>
      </trkpt>
      <trkpt lat="45.44077" lon="16.29654">
        <ele>114.046832</ele>
        <time>2022-05-06T21:14:29.532Z</time>
      </trkpt>
      <trkpt lat="45.44222" lon="16.30434">
        <ele>111.101926</ele>
        <time>2022-05-06T21:17:09.161Z</time>
      </trkpt>
      <trkpt lat="45.44423" lon="16.31054">
        <ele>106.656723</ele>
        <time>2022-05-06T21:19:03.494Z</time>
      </trkpt>
      <trkpt lat="45.44244" lon="16.32908">
        <ele>105.906889</ele>
        <time>2022-05-06T21:24:58.571Z</time>
      </trkpt>
      <trkpt lat="45.44038" lon="16.34332">
        <ele>103.887661</ele>
        <time>2022-05-06T21:29:27.283Z</time>
      </trkpt>
      <trkpt lat="45.43904" lon="16.35019">
        <ele>99.509742</ele>
        <time>2022-05-06T21:31:28.849Z</time>
      </trkpt>
      <trkpt lat="45.44009" lon="16.35853">
        <ele>98.978415</ele>
        <time>2022-05-06T21:34:07.857Z</time>
      </trkpt>
      <trkpt lat="45.44344" lon="16.36773">
        <ele>101.390906</ele>
        <time>2022-05-06T21:37:36.300Z</time>
      </trkpt>
      <trkpt lat="45.45203" lon="16.37053">
        <ele>106.865725</ele>
        <time>2022-05-06T21:42:01.440Z</time>
      </trkpt>
      <trkpt lat="45.45948" lon="16.37166">
        <ele>104.729345</ele>
        <time>2022-05-06T21:45:13.189Z</time>
      </trkpt>
      <trkpt lat="45.46602" lon="16.36995">
        <ele>111.37314</ele>
        <time>2022-05-06T21:48:54.490Z</time>
      </trkpt>
      <trkpt lat="45.47137" lon="16.36647">
        <ele>123.116629</ele>
        <time>2022-05-06T21:52:30.177Z</time>
      </trkpt>
      <trkpt lat="45.47652" lon="16.36805">
        <ele>119.122855</ele>
        <time>2022-05-06T21:54:40.157Z</time>
      </trkpt>
      <trkpt lat="45.47985" lon="16.3705">
        <ele>101.457201</ele>
        <time>2022-05-06T21:56:17.074Z</time>
      </trkpt>
      <trkpt lat="45.48312" lon="16.37143">
        <ele>101.047354</ele>
        <time>2022-05-06T21:59:17.239Z</time>
      </trkpt>
      <trkpt lat="45.48315" lon="16.37123">
        <ele>100.35762</ele>
        <time>2022-05-06T22:00:20.767Z</time>
      </trkpt>
      <trkpt lat="45.48277" lon="16.37345">
        <ele>99.334073</ele>
        <time>2022-05-06T22:01:33.355Z</time>
      </trkpt>
      <trkpt lat="45.48512" lon="16.37432">
        <ele>100.343144</ele>
        <time>2022-05-06T22:03:36.442Z</time>
      </trkpt>
      <trkpt lat="45.48795" lon="16.37636">
        <ele>99.592661</ele>
        <time>2022-05-06T22:05:10.697Z</time>
      </trkpt>
      <trkpt lat="45.49488" lon="16.3767">
        <ele>96.724481</ele>
        <time>2022-05-06T22:08:09.215Z</time>
      </trkpt>
      <trkpt lat="45.49621" lon="16.37377">
        <ele>96.968178</ele>
        <time>2022-05-06T22:09:54.136Z</time>
      </trkpt>
      <trkpt lat="45.50514" lon="16.37723">
        <ele>96.847922</ele>
        <time>2022-05-06T22:14:02.445Z</time>
      </trkpt>
      <trkpt lat="45.51237" lon="16.37932">
        <ele>97.0517</ele>
        <time>2022-05-06T22:17:23.437Z</time>
      </trkpt>
      <trkpt lat="45.51676" lon="16.37949">
        <ele>96.799443</ele>
        <time>2022-05-06T22:19:22.683Z</time>
      </trkpt>
      <trkpt lat="45.5224" lon="16.37733">
        <ele>95.969487</ele>
        <time>2022-05-06T22:22:30.799Z</time>
      </trkpt>
      <trkpt lat="45.52811" lon="16.37968">
        <ele>95.594024</ele>
        <time>2022-05-06T22:25:07.821Z</time>
      </trkpt>
      <trkpt lat="45.53396" lon="16.37844">
        <ele>95.513607</ele>
        <time>2022-05-06T22:27:57.463Z</time>
      </trkpt>
      <trkpt lat="45.54195" lon="16.3788">
        <ele>97.77315</ele>
        <time>2022-05-06T22:31:58.145Z</time>
      </trkpt>
      <trkpt lat="45.56347" lon="16.37698">
        <ele>96.411627</ele>
        <time>2022-05-06T22:41:45.886Z</time>
      </trkpt>
      <trkpt lat="45.57042" lon="16.37517">
        <ele>97.233923</ele>
        <time>2022-05-06T22:45:09.066Z</time>
      </trkpt>
      <trkpt lat="45.57721" lon="16.37752">
        <ele>97.825086</ele>
        <time>2022-05-06T22:48:36.712Z</time>
      </trkpt>
      <trkpt lat="45.58395" lon="16.37623">
        <ele>98.769783</ele>
        <time>2022-05-06T22:52:52.516Z</time>
      </trkpt>
      <trkpt lat="45.58933" lon="16.36067">
        <ele>97.873541</ele>
        <time>2022-05-06T22:59:05.095Z</time>
      </trkpt>
      <trkpt lat="45.59528" lon="16.34881">
        <ele>98.42281</ele>
        <time>2022-05-06T23:04:41.935Z</time>
      </trkpt>
      <trkpt lat="45.59921" lon="16.35168">
        <ele>97.590195</ele>
        <time>2022-05-06T23:07:01.253Z</time>
      </trkpt>
      <trkpt lat="45.60264" lon="16.36261">
        <ele>98.596172</ele>
        <time>2022-05-06T23:12:32.683Z</time>
      </trkpt>
      <trkpt lat="45.61066" lon="16.35498">
        <ele>97.389056</ele>
        <time>2022-05-06T23:17:00.877Z</time>
      </trkpt>
      <trkpt lat="45.62316" lon="16.35166">
        <ele>97.950016</ele>
        <time>2022-05-06T23:23:22.363Z</time>
      </trkpt>
      <trkpt lat="45.62739" lon="16.3459">
        <ele>97.692489</ele>
        <time>2022-05-06T23:26:42.346Z</time>
      </trkpt>
      <trkpt lat="45.63252" lon="16.33986">
        <ele>97.680533</ele>
        <time>2022-05-06T23:30:01.962Z</time>
      </trkpt>
      <trkpt lat="45.64044" lon="16.3446">
        <ele>98.950542</ele>
        <time>2022-05-06T23:33:58.223Z</time>
      </trkpt>
      <trkpt lat="45.64709" lon="16.34363">
        <ele>97.457665</ele>
        <time>2022-05-06T23:37:13.941Z</time>
      </trkpt>
      <trkpt lat="45.64425" lon="16.31963">
        <ele>96.703243</ele>
        <time>2022-05-06T23:45:01.945Z</time>
      </trkpt>
      <trkpt lat="45.64023" lon="16.30391">
        <ele>101.215968</ele>
        <time>2022-05-06T23:50:48.007Z</time>
      </trkpt>
      <trkpt lat="45.6456" lon="16.29557">
        <ele>98.105613</ele>
        <time>2022-05-06T23:55:32.199Z</time>
      </trkpt>
      <trkpt lat="45.65578" lon="16.2908">
        <ele>99.630711</ele>
        <time>2022-05-07T00:00:41.884Z</time>
      </trkpt>
      <trkpt lat="45.66267" lon="16.29518">
        <ele>100.416223</ele>
        <time>2022-05-07T00:04:17.901Z</time>
      </trkpt>
      <trkpt lat="45.67023" lon="16.2903">
        <ele>99.888201</ele>
        <time>2022-05-07T00:08:27.382Z</time>
      </trkpt>
      <trkpt lat="45.67316" lon="16.28994">
        <ele>98.038757</ele>
        <time>2022-05-07T00:09:50.379Z</time>
      </trkpt>
      <trkpt lat="45.66909" lon="16.27121">
        <ele>97.917889</ele>
        <time>2022-05-07T00:16:00.670Z</time>
      </trkpt>
      <trkpt lat="45.67778" lon="16.25589">
        <ele>99.367401</ele>
        <time>2022-05-07T00:22:23.784Z</time>
      </trkpt>
      <trkpt lat="45.68183" lon="16.25295">
        <ele>99.592539</ele>
        <time>2022-05-07T00:24:33.915Z</time>
      </trkpt>
      <trkpt lat="45.68658" lon="16.24848">
        <ele>100.064238</ele>
        <time>2022-05-07T00:27:29.742Z</time>
      </trkpt>
      <trkpt lat="45.69264" lon="16.2423">
        <ele>100.008978</ele>
        <time>2022-05-07T00:31:51.018Z</time>
      </trkpt>
      <trkpt lat="45.69699" lon="16.23788">
        <ele>99.488828</ele>
        <time>2022-05-07T00:34:15.761Z</time>
      </trkpt>
      <trkpt lat="45.71125" lon="16.2268">
        <ele>99.909489</ele>
        <time>2022-05-07T00:41:42.365Z</time>
      </trkpt>
      <trkpt lat="45.72415" lon="16.22075">
        <ele>98.952235</ele>
        <time>2022-05-07T00:47:45.088Z</time>
      </trkpt>
      <trkpt lat="45.74254" lon="16.23244">
        <ele>99.115137</ele>
        <time>2022-05-07T00:56:44.880Z</time>
      </trkpt>
      <trkpt lat="45.75195" lon="16.23225">
        <ele>100.211092</ele>
        <time>2022-05-07T01:01:05.732Z</time>
      </trkpt>
      <trkpt lat="45.76022" lon="16.22146">
        <ele>99.986434</ele>
        <time>2022-05-07T01:06:49.096Z</time>
      </trkpt>
      <trkpt lat="45.7592" lon="16.20901">
        <ele>100.168994</ele>
        <time>2022-05-07T01:10:57.139Z</time>
      </trkpt>
      <trkpt lat="45.76407" lon="16.19864">
        <ele>100.10036</ele>
        <time>2022-05-07T01:15:10.609Z</time>
      </trkpt>
      <trkpt lat="45.76525" lon="16.1884">
        <ele>100.305087</ele>
        <time>2022-05-07T01:18:45.275Z</time>
      </trkpt>
      <trkpt lat="45.76939" lon="16.17826">
        <ele>101.148815</ele>
        <time>2022-05-07T01:22:46.536Z</time>
      </trkpt>
      <trkpt lat="45.77628" lon="16.17721">
        <ele>101.990342</ele>
        <time>2022-05-07T01:26:15.897Z</time>
      </trkpt>
      <trkpt lat="45.77891" lon="16.1708">
        <ele>101.155718</ele>
        <time>2022-05-07T01:29:31.590Z</time>
      </trkpt>
      <trkpt lat="45.77954" lon="16.16188">
        <ele>102.314807</ele>
        <time>2022-05-07T01:32:26.574Z</time>
      </trkpt>
      <trkpt lat="45.78264" lon="16.15314">
        <ele>102.761574</ele>
        <time>2022-05-07T01:35:44.876Z</time>
      </trkpt>
      <trkpt lat="45.7881" lon="16.1474">
        <ele>104.17484</ele>
        <time>2022-05-07T01:38:57.054Z</time>
      </trkpt>
      <trkpt lat="45.79163" lon="16.14394">
        <ele>103.841265</ele>
        <time>2022-05-07T01:40:56.513Z</time>
      </trkpt>
      <trkpt lat="45.78972" lon="16.13532">
        <ele>104.890838</ele>
        <time>2022-05-07T01:44:13.121Z</time>
      </trkpt>
      <trkpt lat="45.79303" lon="16.12525">
        <ele>103.979389</ele>
        <time>2022-05-07T01:47:45.142Z</time>
      </trkpt>
      <trkpt lat="45.79769" lon="16.11965">
        <ele>105.158186</ele>
        <time>2022-05-07T01:51:06.993Z</time>
      </trkpt>
      <trkpt lat="45.79982" lon="16.11207">
        <ele>104.290312</ele>
        <time>2022-05-07T01:53:41.478Z</time>
      </trkpt>
      <trkpt lat="45.79989" lon="16.10765">
        <ele>105.243738</ele>
        <time>2022-05-07T01:55:13.061Z</time>
      </trkpt>
      <trkpt lat="45.80175" lon="16.10181">
        <ele>108.509793</ele>
        <time>2022-05-07T01:57:35.791Z</time>
      </trkpt>
      <trkpt lat="45.80074" lon="16.09422">
        <ele>106.22864</ele>
        <time>2022-05-07T01:59:55.203Z</time>
      </trkpt>
      <trkpt lat="45.80201" lon="16.08921">
        <ele>107.24859</ele>
        <time>2022-05-07T02:01:40.386Z</time>
      </trkpt>
      <trkpt lat="45.80219" lon="16.08316">
        <ele>109.54649</ele>
        <time>2022-05-07T02:03:54.607Z</time>
      </trkpt>
      <trkpt lat="45.80147" lon="16.07775">
        <ele>109.539588</ele>
        <time>2022-05-07T02:06:37.295Z</time>
      </trkpt>
      <trkpt lat="45.80165" lon="16.06382">
        <ele>107.802529</ele>
        <time>2022-05-07T02:11:12.388Z</time>
      </trkpt>
      <trkpt lat="45.80047" lon="16.05634">
        <ele>109.783543</ele>
        <time>2022-05-07T02:13:54.122Z</time>
      </trkpt>
      <trkpt lat="45.79916" lon="16.04813">
        <ele>107.897076</ele>
        <time>2022-05-07T02:16:24.217Z</time>
      </trkpt>
      <trkpt lat="45.79747" lon="16.03857">
        <ele>109.226749</ele>
        <time>2022-05-07T02:19:40.104Z</time>
      </trkpt>
      <trkpt lat="45.79933" lon="16.03434">
        <ele>109.924318</ele>
        <time>2022-05-07T02:22:26.545Z</time>
      </trkpt>
      <trkpt lat="45.80103" lon="16.03103">
        <ele>111.279703</ele>
        <time>2022-05-07T02:24:38.568Z</time>
      </trkpt>
      <trkpt lat="45.80392" lon="16.02566">
        <ele>111.677141</ele>
        <time>2022-05-07T02:28:18.822Z</time>
      </trkpt>
      <trkpt lat="45.80468" lon="16.0233">
        <ele>112.987687</ele>
        <time>2022-05-07T02:30:29.354Z</time>
      </trkpt>
      <trkpt lat="45.80369" lon="16.01782">
        <ele>111.659221</ele>
        <time>2022-05-07T02:33:04.892Z</time>
      </trkpt>
      <trkpt lat="45.80303" lon="16.01303">
        <ele>111.923491</ele>
        <time>2022-05-07T02:35:44.731Z</time>
      </trkpt>
      <trkpt lat="45.80444" lon="16.00877">
        <ele>112.511446</ele>
        <time>2022-05-07T02:38:06.964Z</time>
      </trkpt>
      <trkpt lat="45.80816" lon="16.00485">
        <ele>114.518747</ele>
        <time>2022-05-07T02:41:46.804Z</time>
      </trkpt>
      <trkpt lat="45.80935" lon="16.00359">
        <ele>113.891153</ele>
        <time>2022-05-07T02:42:54.817Z</time>
      </trkpt>
      <trkpt lat="45.80887" lon="16.00167">
        <ele>114.004558</ele>
        <time>2022-05-07T02:43:48.535Z</time>
      </trkpt>
      <trkpt lat="45.80791" lon="15.99797">
        <ele>115.526599</ele>
        <time>2022-05-07T02:45:13.167Z</time>
      </trkpt>
      <trkpt lat="45.80652" lon="15.99263">
        <ele>116.270209</ele>
        <time>2022-05-07T02:47:03.256Z</time>
      </trkpt>
      <trkpt lat="45.80846" lon="15.98984">
        <ele>120.283797</ele>
        <time>2022-05-07T02:48:42.943Z</time>
      </trkpt>
      <trkpt lat="45.8104" lon="15.98709">
        <ele>122.039414</ele>
        <time>2022-05-07T02:50:32.622Z</time>
      </trkpt>
      <trkpt lat="45.80984" lon="15.9837">
        <ele>124.267166</ele>
        <time>2022-05-07T02:51:59.955Z</time>
      </trkpt>
      <trkpt lat="45.81084" lon="15.9799">
        <ele>128.704844</ele>
        <time>2022-05-07T02:54:14.295Z</time>
      </trkpt>
      <trkpt lat="45.81274" lon="15.97759">
        <ele>132.998383</ele>
        <time>2022-05-07T02:57:18.695Z</time>
      </trkpt>
      <trkpt lat="45.81298" lon="15.97697">
        <ele>132.998383</ele>
        <time>2022-05-07T02:57:57.766Z</time>
      </trkpt>
    </trkseg>
  </trk>
</gpx>